sensor_id;sensor_type;location;lat;lon;timestamp;P1;durP1;ratioP1;P2;durP2;ratioP2
53927;SDS011;39837;47.630;18.822;2022-11-20T00:01:38;10.57;;;6.47;;
53927;SDS011;39837;47.630;18.822;2022-11-20T00:04:22;11.85;;;7.25;;
53927;SDS011;39837;47.630;18.822;2022-11-20T00:07:06;10.23;;;6.05;;
53927;SDS011;39837;47.630;18.822;2022-11-20T00:09:50;6.57;;;5.78;;
53927;SDS011;39837;47.630;18.822;2022-11-20T00:12:34;11.18;;;5.45;;
53927;SDS011;39837;47.630;18.822;2022-11-20T00:15:18;12.18;;;6.70;;
53927;SDS011;39837;47.630;18.822;2022-11-20T00:18:02;8.50;;;6.07;;
53927;SDS011;39837;47.630;18.822;2022-11-20T00:20:46;10.93;;;4.97;;
53927;SDS011;39837;47.630;18.822;2022-11-20T00:23:30;8.88;;;5.53;;
53927;SDS011;39837;47.630;18.822;2022-11-20T00:26:16;6.72;;;4.75;;
53927;SDS011;39837;47.630;18.822;2022-11-20T00:29:01;8.30;;;4.82;;
53927;SDS011;39837;47.630;18.822;2022-11-20T00:31:45;8.50;;;5.10;;
53927;SDS011;39837;47.630;18.822;2022-11-20T00:34:29;9.55;;;5.57;;
53927;SDS011;39837;47.630;18.822;2022-11-20T00:37:13;8.02;;;5.18;;
53927;SDS011;39837;47.630;18.822;2022-11-20T00:39:57;7.72;;;5.00;;
53927;SDS011;39837;47.630;18.822;2022-11-20T00:42:41;8.68;;;5.50;;
53927;SDS011;39837;47.630;18.822;2022-11-20T00:45:25;17.98;;;6.30;;
53927;SDS011;39837;47.630;18.822;2022-11-20T00:48:09;15.50;;;6.25;;
53927;SDS011;39837;47.630;18.822;2022-11-20T00:50:53;8.60;;;5.53;;
53927;SDS011;39837;47.630;18.822;2022-11-20T00:53:37;9.13;;;6.30;;
53927;SDS011;39837;47.630;18.822;2022-11-20T00:56:21;18.27;;;5.90;;
53927;SDS011;39837;47.630;18.822;2022-11-20T00:59:06;14.18;;;6.15;;
53927;SDS011;39837;47.630;18.822;2022-11-20T01:01:49;10.32;;;6.50;;
53927;SDS011;39837;47.630;18.822;2022-11-20T01:04:33;9.38;;;6.25;;
53927;SDS011;39837;47.630;18.822;2022-11-20T01:07:17;6.45;;;5.30;;
53927;SDS011;39837;47.630;18.822;2022-11-20T01:10:01;14.85;;;6.95;;
53927;SDS011;39837;47.630;18.822;2022-11-20T01:12:45;9.35;;;5.82;;
53927;SDS011;39837;47.630;18.822;2022-11-20T01:15:50;7.65;;;5.63;;
53927;SDS011;39837;47.630;18.822;2022-11-20T01:18:34;8.48;;;5.50;;
53927;SDS011;39837;47.630;18.822;2022-11-20T01:21:20;10.27;;;6.35;;
53927;SDS011;39837;47.630;18.822;2022-11-20T01:24:06;10.13;;;5.32;;
53927;SDS011;39837;47.630;18.822;2022-11-20T01:26:53;12.15;;;6.75;;
53927;SDS011;39837;47.630;18.822;2022-11-20T01:29:37;13.85;;;6.47;;
53927;SDS011;39837;47.630;18.822;2022-11-20T01:32:21;11.15;;;6.80;;
53927;SDS011;39837;47.630;18.822;2022-11-20T01:35:05;11.00;;;6.00;;
53927;SDS011;39837;47.630;18.822;2022-11-20T01:37:50;10.90;;;7.03;;
53927;SDS011;39837;47.630;18.822;2022-11-20T01:40:34;12.52;;;7.50;;
53927;SDS011;39837;47.630;18.822;2022-11-20T01:43:18;8.52;;;6.22;;
53927;SDS011;39837;47.630;18.822;2022-11-20T01:46:12;12.20;;;5.65;;
53927;SDS011;39837;47.630;18.822;2022-11-20T01:51:52;11.18;;;7.53;;
53927;SDS011;39837;47.630;18.822;2022-11-20T01:54:44;12.20;;;5.72;;
53927;SDS011;39837;47.630;18.822;2022-11-20T01:57:31;13.50;;;6.85;;
53927;SDS011;39837;47.630;18.822;2022-11-20T02:00:16;10.23;;;5.70;;
53927;SDS011;39837;47.630;18.822;2022-11-20T02:03:03;10.73;;;6.03;;
53927;SDS011;39837;47.630;18.822;2022-11-20T02:05:51;15.65;;;7.60;;
53927;SDS011;39837;47.630;18.822;2022-11-20T02:08:39;11.25;;;6.75;;
53927;SDS011;39837;47.630;18.822;2022-11-20T02:11:23;12.60;;;5.93;;
53927;SDS011;39837;47.630;18.822;2022-11-20T02:14:07;10.05;;;6.85;;
53927;SDS011;39837;47.630;18.822;2022-11-20T02:16:51;8.48;;;6.07;;
53927;SDS011;39837;47.630;18.822;2022-11-20T02:19:35;16.40;;;6.93;;
53927;SDS011;39837;47.630;18.822;2022-11-20T02:22:21;11.00;;;6.70;;
53927;SDS011;39837;47.630;18.822;2022-11-20T02:25:12;9.57;;;5.93;;
53927;SDS011;39837;47.630;18.822;2022-11-20T02:27:56;11.38;;;6.25;;
53927;SDS011;39837;47.630;18.822;2022-11-20T02:30:40;9.05;;;6.00;;
53927;SDS011;39837;47.630;18.822;2022-11-20T02:33:24;9.13;;;6.47;;
53927;SDS011;39837;47.630;18.822;2022-11-20T02:36:08;11.00;;;6.93;;
53927;SDS011;39837;47.630;18.822;2022-11-20T02:38:55;17.08;;;8.00;;
53927;SDS011;39837;47.630;18.822;2022-11-20T02:41:39;10.13;;;6.57;;
53927;SDS011;39837;47.630;18.822;2022-11-20T02:44:23;11.52;;;6.47;;
53927;SDS011;39837;47.630;18.822;2022-11-20T02:47:07;8.38;;;6.18;;
53927;SDS011;39837;47.630;18.822;2022-11-20T02:49:51;16.17;;;7.53;;
53927;SDS011;39837;47.630;18.822;2022-11-20T02:52:35;9.88;;;6.65;;
53927;SDS011;39837;47.630;18.822;2022-11-20T02:55:19;9.25;;;5.63;;
53927;SDS011;39837;47.630;18.822;2022-11-20T02:58:03;10.48;;;6.75;;
53927;SDS011;39837;47.630;18.822;2022-11-20T03:00:47;18.40;;;7.82;;
53927;SDS011;39837;47.630;18.822;2022-11-20T03:03:31;11.93;;;6.93;;
53927;SDS011;39837;47.630;18.822;2022-11-20T03:06:16;10.27;;;5.57;;
53927;SDS011;39837;47.630;18.822;2022-11-20T03:09:00;10.50;;;5.60;;
53927;SDS011;39837;47.630;18.822;2022-11-20T03:11:44;11.23;;;7.13;;
53927;SDS011;39837;47.630;18.822;2022-11-20T03:14:28;7.25;;;5.28;;
53927;SDS011;39837;47.630;18.822;2022-11-20T03:17:12;8.95;;;6.20;;
53927;SDS011;39837;47.630;18.822;2022-11-20T03:19:56;8.13;;;5.75;;
53927;SDS011;39837;47.630;18.822;2022-11-20T03:22:40;12.93;;;5.53;;
53927;SDS011;39837;47.630;18.822;2022-11-20T03:25:24;9.88;;;6.43;;
53927;SDS011;39837;47.630;18.822;2022-11-20T03:28:09;16.70;;;6.93;;
53927;SDS011;39837;47.630;18.822;2022-11-20T03:30:53;9.38;;;5.78;;
53927;SDS011;39837;47.630;18.822;2022-11-20T03:33:37;9.48;;;6.82;;
53927;SDS011;39837;47.630;18.822;2022-11-20T03:36:23;8.18;;;6.40;;
53927;SDS011;39837;47.630;18.822;2022-11-20T03:39:07;12.98;;;7.60;;
53927;SDS011;39837;47.630;18.822;2022-11-20T03:41:52;14.68;;;7.25;;
53927;SDS011;39837;47.630;18.822;2022-11-20T03:44:35;11.80;;;7.15;;
53927;SDS011;39837;47.630;18.822;2022-11-20T03:47:19;9.82;;;6.18;;
53927;SDS011;39837;47.630;18.822;2022-11-20T03:50:04;11.02;;;6.82;;
53927;SDS011;39837;47.630;18.822;2022-11-20T03:52:49;11.48;;;6.90;;
53927;SDS011;39837;47.630;18.822;2022-11-20T03:55:33;12.10;;;6.70;;
53927;SDS011;39837;47.630;18.822;2022-11-20T03:58:17;15.23;;;6.97;;
53927;SDS011;39837;47.630;18.822;2022-11-20T04:01:15;10.88;;;7.22;;
53927;SDS011;39837;47.630;18.822;2022-11-20T04:04:00;10.00;;;7.40;;
53927;SDS011;39837;47.630;18.822;2022-11-20T04:06:44;10.55;;;6.38;;
53927;SDS011;39837;47.630;18.822;2022-11-20T04:09:28;13.60;;;6.68;;
53927;SDS011;39837;47.630;18.822;2022-11-20T04:12:12;10.32;;;6.72;;
53927;SDS011;39837;47.630;18.822;2022-11-20T04:14:56;14.50;;;7.22;;
53927;SDS011;39837;47.630;18.822;2022-11-20T04:17:40;16.65;;;6.50;;
53927;SDS011;39837;47.630;18.822;2022-11-20T04:20:24;15.13;;;7.55;;
53927;SDS011;39837;47.630;18.822;2022-11-20T04:23:08;9.18;;;6.95;;
53927;SDS011;39837;47.630;18.822;2022-11-20T04:25:52;19.05;;;7.20;;
53927;SDS011;39837;47.630;18.822;2022-11-20T04:28:37;9.68;;;6.72;;
53927;SDS011;39837;47.630;18.822;2022-11-20T04:31:22;13.70;;;7.80;;
53927;SDS011;39837;47.630;18.822;2022-11-20T04:34:07;7.63;;;5.63;;
53927;SDS011;39837;47.630;18.822;2022-11-20T04:36:54;8.52;;;6.05;;
53927;SDS011;39837;47.630;18.822;2022-11-20T04:39:38;12.05;;;7.60;;
53927;SDS011;39837;47.630;18.822;2022-11-20T04:42:22;10.05;;;6.43;;
53927;SDS011;39837;47.630;18.822;2022-11-20T04:45:12;10.40;;;6.45;;
53927;SDS011;39837;47.630;18.822;2022-11-20T04:47:56;7.45;;;5.85;;
53927;SDS011;39837;47.630;18.822;2022-11-20T04:50:40;7.65;;;4.63;;
53927;SDS011;39837;47.630;18.822;2022-11-20T04:53:27;10.90;;;6.88;;
53927;SDS011;39837;47.630;18.822;2022-11-20T04:56:11;13.93;;;6.65;;
53927;SDS011;39837;47.630;18.822;2022-11-20T04:58:59;11.68;;;7.40;;
53927;SDS011;39837;47.630;18.822;2022-11-20T05:01:44;11.45;;;5.60;;
53927;SDS011;39837;47.630;18.822;2022-11-20T05:04:28;8.85;;;6.05;;
53927;SDS011;39837;47.630;18.822;2022-11-20T05:07:12;9.27;;;6.25;;
53927;SDS011;39837;47.630;18.822;2022-11-20T05:09:56;9.48;;;6.53;;
53927;SDS011;39837;47.630;18.822;2022-11-20T05:12:40;11.93;;;6.25;;
53927;SDS011;39837;47.630;18.822;2022-11-20T05:15:24;9.45;;;6.35;;
53927;SDS011;39837;47.630;18.822;2022-11-20T05:18:08;11.95;;;7.75;;
53927;SDS011;39837;47.630;18.822;2022-11-20T05:20:56;10.32;;;6.25;;
53927;SDS011;39837;47.630;18.822;2022-11-20T05:23:41;10.52;;;6.43;;
53927;SDS011;39837;47.630;18.822;2022-11-20T05:26:26;8.93;;;6.35;;
53927;SDS011;39837;47.630;18.822;2022-11-20T05:29:10;16.10;;;7.72;;
53927;SDS011;39837;47.630;18.822;2022-11-20T05:31:55;15.18;;;9.07;;
53927;SDS011;39837;47.630;18.822;2022-11-20T05:34:39;11.48;;;6.55;;
53927;SDS011;39837;47.630;18.822;2022-11-20T05:37:23;12.73;;;6.60;;
53927;SDS011;39837;47.630;18.822;2022-11-20T05:40:07;12.88;;;7.20;;
53927;SDS011;39837;47.630;18.822;2022-11-20T05:42:52;13.27;;;7.20;;
53927;SDS011;39837;47.630;18.822;2022-11-20T05:45:36;9.20;;;6.13;;
53927;SDS011;39837;47.630;18.822;2022-11-20T05:48:20;8.18;;;6.32;;
53927;SDS011;39837;47.630;18.822;2022-11-20T05:51:05;11.27;;;6.88;;
53927;SDS011;39837;47.630;18.822;2022-11-20T05:53:51;11.55;;;6.72;;
53927;SDS011;39837;47.630;18.822;2022-11-20T05:56:35;14.77;;;9.25;;
53927;SDS011;39837;47.630;18.822;2022-11-20T05:59:19;14.15;;;6.85;;
53927;SDS011;39837;47.630;18.822;2022-11-20T06:02:03;10.55;;;6.30;;
53927;SDS011;39837;47.630;18.822;2022-11-20T06:04:47;13.38;;;7.45;;
53927;SDS011;39837;47.630;18.822;2022-11-20T06:07:31;13.43;;;7.43;;
53927;SDS011;39837;47.630;18.822;2022-11-20T06:10:15;18.45;;;8.90;;
53927;SDS011;39837;47.630;18.822;2022-11-20T06:12:59;10.85;;;7.70;;
53927;SDS011;39837;47.630;18.822;2022-11-20T06:15:48;12.60;;;8.05;;
53927;SDS011;39837;47.630;18.822;2022-11-20T06:18:35;14.45;;;7.45;;
53927;SDS011;39837;47.630;18.822;2022-11-20T06:21:20;14.82;;;7.00;;
53927;SDS011;39837;47.630;18.822;2022-11-20T06:24:05;14.57;;;8.25;;
53927;SDS011;39837;47.630;18.822;2022-11-20T06:26:50;20.98;;;7.45;;
53927;SDS011;39837;47.630;18.822;2022-11-20T06:29:33;12.50;;;7.15;;
53927;SDS011;39837;47.630;18.822;2022-11-20T06:32:18;16.23;;;8.75;;
53927;SDS011;39837;47.630;18.822;2022-11-20T06:35:02;13.00;;;8.52;;
53927;SDS011;39837;47.630;18.822;2022-11-20T06:37:46;11.10;;;6.28;;
53927;SDS011;39837;47.630;18.822;2022-11-20T06:40:30;16.35;;;8.20;;
53927;SDS011;39837;47.630;18.822;2022-11-20T06:43:14;15.52;;;8.77;;
53927;SDS011;39837;47.630;18.822;2022-11-20T06:45:58;36.75;;;17.38;;
53927;SDS011;39837;47.630;18.822;2022-11-20T06:48:42;30.95;;;14.20;;
53927;SDS011;39837;47.630;18.822;2022-11-20T06:51:27;16.48;;;10.20;;
53927;SDS011;39837;47.630;18.822;2022-11-20T06:54:11;18.52;;;9.43;;
53927;SDS011;39837;47.630;18.822;2022-11-20T06:56:55;14.95;;;7.47;;
53927;SDS011;39837;47.630;18.822;2022-11-20T06:59:39;18.15;;;9.30;;
53927;SDS011;39837;47.630;18.822;2022-11-20T07:02:23;11.82;;;8.45;;
53927;SDS011;39837;47.630;18.822;2022-11-20T07:05:07;10.30;;;7.70;;
53927;SDS011;39837;47.630;18.822;2022-11-20T07:07:51;12.43;;;8.13;;
53927;SDS011;39837;47.630;18.822;2022-11-20T07:10:35;13.15;;;8.80;;
53927;SDS011;39837;47.630;18.822;2022-11-20T07:13:19;16.83;;;9.05;;
53927;SDS011;39837;47.630;18.822;2022-11-20T07:16:04;14.48;;;8.98;;
53927;SDS011;39837;47.630;18.822;2022-11-20T07:18:50;13.38;;;7.25;;
53927;SDS011;39837;47.630;18.822;2022-11-20T07:21:34;15.25;;;9.52;;
53927;SDS011;39837;47.630;18.822;2022-11-20T07:24:18;17.48;;;7.65;;
53927;SDS011;39837;47.630;18.822;2022-11-20T07:27:02;15.98;;;9.45;;
53927;SDS011;39837;47.630;18.822;2022-11-20T07:29:47;19.42;;;9.10;;
53927;SDS011;39837;47.630;18.822;2022-11-20T07:32:31;17.20;;;8.13;;
53927;SDS011;39837;47.630;18.822;2022-11-20T07:35:16;15.85;;;9.30;;
53927;SDS011;39837;47.630;18.822;2022-11-20T07:38:00;13.27;;;9.57;;
53927;SDS011;39837;47.630;18.822;2022-11-20T07:40:44;10.85;;;8.45;;
53927;SDS011;39837;47.630;18.822;2022-11-20T07:43:28;14.65;;;8.10;;
53927;SDS011;39837;47.630;18.822;2022-11-20T07:46:11;24.02;;;12.32;;
53927;SDS011;39837;47.630;18.822;2022-11-20T07:48:56;22.35;;;12.77;;
53927;SDS011;39837;47.630;18.822;2022-11-20T07:51:40;18.00;;;10.80;;
53927;SDS011;39837;47.630;18.822;2022-11-20T07:54:24;27.67;;;12.25;;
53927;SDS011;39837;47.630;18.822;2022-11-20T07:57:08;16.80;;;10.57;;
53927;SDS011;39837;47.630;18.822;2022-11-20T07:59:52;12.90;;;10.52;;
53927;SDS011;39837;47.630;18.822;2022-11-20T08:02:39;17.90;;;10.82;;
53927;SDS011;39837;47.630;18.822;2022-11-20T08:05:24;19.67;;;11.88;;
53927;SDS011;39837;47.630;18.822;2022-11-20T08:08:08;19.52;;;11.43;;
53927;SDS011;39837;47.630;18.822;2022-11-20T08:10:52;17.20;;;10.27;;
53927;SDS011;39837;47.630;18.822;2022-11-20T08:13:36;17.90;;;8.57;;
53927;SDS011;39837;47.630;18.822;2022-11-20T08:16:39;15.30;;;10.85;;
53927;SDS011;39837;47.630;18.822;2022-11-20T08:19:24;20.20;;;10.82;;
53927;SDS011;39837;47.630;18.822;2022-11-20T08:22:09;14.45;;;7.18;;
53927;SDS011;39837;47.630;18.822;2022-11-20T08:24:53;17.58;;;8.20;;
53927;SDS011;39837;47.630;18.822;2022-11-20T08:27:37;14.48;;;9.38;;
53927;SDS011;39837;47.630;18.822;2022-11-20T08:30:21;11.95;;;8.40;;
53927;SDS011;39837;47.630;18.822;2022-11-20T08:33:06;15.45;;;10.15;;
53927;SDS011;39837;47.630;18.822;2022-11-20T08:35:52;22.33;;;11.32;;
53927;SDS011;39837;47.630;18.822;2022-11-20T08:38:35;18.52;;;8.93;;
53927;SDS011;39837;47.630;18.822;2022-11-20T08:41:19;14.10;;;9.02;;
53927;SDS011;39837;47.630;18.822;2022-11-20T08:44:14;18.33;;;10.15;;
53927;SDS011;39837;47.630;18.822;2022-11-20T08:46:58;10.10;;;8.48;;
53927;SDS011;39837;47.630;18.822;2022-11-20T08:49:42;17.85;;;9.15;;
53927;SDS011;39837;47.630;18.822;2022-11-20T08:52:26;15.27;;;10.05;;
53927;SDS011;39837;47.630;18.822;2022-11-20T08:55:10;15.10;;;10.65;;
53927;SDS011;39837;47.630;18.822;2022-11-20T08:57:54;14.38;;;9.57;;
53927;SDS011;39837;47.630;18.822;2022-11-20T09:00:38;19.33;;;9.57;;
53927;SDS011;39837;47.630;18.822;2022-11-20T09:03:22;14.27;;;7.97;;
53927;SDS011;39837;47.630;18.822;2022-11-20T09:06:06;12.80;;;8.35;;
53927;SDS011;39837;47.630;18.822;2022-11-20T09:08:51;16.33;;;9.85;;
53927;SDS011;39837;47.630;18.822;2022-11-20T09:11:36;12.70;;;9.38;;
53927;SDS011;39837;47.630;18.822;2022-11-20T09:14:20;15.75;;;8.35;;
53927;SDS011;39837;47.630;18.822;2022-11-20T09:17:05;14.70;;;9.07;;
53927;SDS011;39837;47.630;18.822;2022-11-20T09:22:35;23.27;;;9.88;;
53927;SDS011;39837;47.630;18.822;2022-11-20T09:25:19;18.95;;;9.57;;
53927;SDS011;39837;47.630;18.822;2022-11-20T09:28:03;15.50;;;9.02;;
53927;SDS011;39837;47.630;18.822;2022-11-20T09:30:47;19.60;;;10.70;;
53927;SDS011;39837;47.630;18.822;2022-11-20T09:33:31;11.70;;;7.60;;
53927;SDS011;39837;47.630;18.822;2022-11-20T09:36:15;14.13;;;10.18;;
53927;SDS011;39837;47.630;18.822;2022-11-20T09:39:00;19.23;;;9.75;;
53927;SDS011;39837;47.630;18.822;2022-11-20T09:56:13;18.80;;;10.73;;
53927;SDS011;39837;47.630;18.822;2022-11-20T09:58:59;19.08;;;11.05;;
53927;SDS011;39837;47.630;18.822;2022-11-20T10:01:46;18.23;;;10.73;;
53927;SDS011;39837;47.630;18.822;2022-11-20T10:04:31;31.85;;;17.27;;
53927;SDS011;39837;47.630;18.822;2022-11-20T10:07:17;18.77;;;11.60;;
53927;SDS011;39837;47.630;18.822;2022-11-20T10:10:05;21.90;;;13.88;;
53927;SDS011;39837;47.630;18.822;2022-11-20T10:31:00;23.77;;;12.63;;
53927;SDS011;39837;47.630;18.822;2022-11-20T10:33:47;16.90;;;11.27;;
53927;SDS011;39837;47.630;18.822;2022-11-20T10:36:38;27.60;;;11.88;;
53927;SDS011;39837;47.630;18.822;2022-11-20T10:39:41;17.95;;;10.90;;
53927;SDS011;39837;47.630;18.822;2022-11-20T10:42:56;15.48;;;10.65;;
53927;SDS011;39837;47.630;18.822;2022-11-20T10:48:32;14.63;;;11.27;;
53927;SDS011;39837;47.630;18.822;2022-11-20T10:57:10;18.63;;;12.50;;
53927;SDS011;39837;47.630;18.822;2022-11-20T11:00:32;20.15;;;10.05;;
53927;SDS011;39837;47.630;18.822;2022-11-20T11:03:22;19.65;;;12.15;;
53927;SDS011;39837;47.630;18.822;2022-11-20T11:06:17;24.48;;;12.65;;
53927;SDS011;39837;47.630;18.822;2022-11-20T11:09:24;20.00;;;10.55;;
53927;SDS011;39837;47.630;18.822;2022-11-20T11:12:16;17.10;;;11.45;;
53927;SDS011;39837;47.630;18.822;2022-11-20T11:15:00;28.65;;;12.52;;
53927;SDS011;39837;47.630;18.822;2022-11-20T11:17:47;13.15;;;9.10;;
53927;SDS011;39837;47.630;18.822;2022-11-20T11:20:31;15.93;;;10.93;;
53927;SDS011;39837;47.630;18.822;2022-11-20T11:23:26;17.88;;;10.30;;
53927;SDS011;39837;47.630;18.822;2022-11-20T11:26:19;24.75;;;12.20;;
53927;SDS011;39837;47.630;18.822;2022-11-20T11:29:05;21.85;;;11.10;;
53927;SDS011;39837;47.630;18.822;2022-11-20T11:31:49;20.80;;;10.80;;
53927;SDS011;39837;47.630;18.822;2022-11-20T11:34:33;21.20;;;9.38;;
53927;SDS011;39837;47.630;18.822;2022-11-20T11:37:19;18.73;;;11.75;;
53927;SDS011;39837;47.630;18.822;2022-11-20T11:40:05;16.45;;;10.43;;
53927;SDS011;39837;47.630;18.822;2022-11-20T11:42:52;14.30;;;10.95;;
53927;SDS011;39837;47.630;18.822;2022-11-20T11:45:39;17.10;;;11.07;;
53927;SDS011;39837;47.630;18.822;2022-11-20T11:48:23;13.73;;;9.00;;
53927;SDS011;39837;47.630;18.822;2022-11-20T11:51:07;17.23;;;8.60;;
53927;SDS011;39837;47.630;18.822;2022-11-20T11:53:52;29.70;;;10.68;;
53927;SDS011;39837;47.630;18.822;2022-11-20T11:56:36;16.10;;;10.57;;
53927;SDS011;39837;47.630;18.822;2022-11-20T11:59:26;11.32;;;9.18;;
53927;SDS011;39837;47.630;18.822;2022-11-20T12:05:23;23.10;;;10.23;;
53927;SDS011;39837;47.630;18.822;2022-11-20T12:14:21;16.30;;;10.63;;
53927;SDS011;39837;47.630;18.822;2022-11-20T12:17:11;13.85;;;9.15;;
53927;SDS011;39837;47.630;18.822;2022-11-20T12:19:56;25.45;;;10.90;;
53927;SDS011;39837;47.630;18.822;2022-11-20T12:22:48;18.40;;;9.55;;
53927;SDS011;39837;47.630;18.822;2022-11-20T12:25:46;15.13;;;10.18;;
53927;SDS011;39837;47.630;18.822;2022-11-20T12:28:38;16.13;;;8.32;;
53927;SDS011;39837;47.630;18.822;2022-11-20T12:41:15;14.48;;;8.82;;
53927;SDS011;39837;47.630;18.822;2022-11-20T12:53:36;14.75;;;11.05;;
53927;SDS011;39837;47.630;18.822;2022-11-20T13:03:06;23.70;;;10.95;;
53927;SDS011;39837;47.630;18.822;2022-11-20T13:06:10;24.27;;;11.07;;
53927;SDS011;39837;47.630;18.822;2022-11-20T13:09:02;13.60;;;9.60;;
53927;SDS011;39837;47.630;18.822;2022-11-20T13:15:09;16.08;;;8.68;;
53927;SDS011;39837;47.630;18.822;2022-11-20T13:18:34;22.27;;;11.07;;
53927;SDS011;39837;47.630;18.822;2022-11-20T13:21:22;12.52;;;9.98;;
53927;SDS011;39837;47.630;18.822;2022-11-20T13:29:59;11.27;;;8.35;;
53927;SDS011;39837;47.630;18.822;2022-11-20T13:32:58;15.32;;;9.93;;
53927;SDS011;39837;47.630;18.822;2022-11-20T13:35:55;15.07;;;9.75;;
53927;SDS011;39837;47.630;18.822;2022-11-20T13:38:50;16.05;;;10.75;;
53927;SDS011;39837;47.630;18.822;2022-11-20T13:41:35;20.77;;;10.95;;
53927;SDS011;39837;47.630;18.822;2022-11-20T13:44:30;13.13;;;8.80;;
53927;SDS011;39837;47.630;18.822;2022-11-20T13:47:22;18.83;;;9.45;;
53927;SDS011;39837;47.630;18.822;2022-11-20T13:50:08;13.40;;;8.50;;
53927;SDS011;39837;47.630;18.822;2022-11-20T13:53:01;16.83;;;10.20;;
53927;SDS011;39837;47.630;18.822;2022-11-20T14:02:00;16.83;;;9.20;;
53927;SDS011;39837;47.630;18.822;2022-11-20T14:04:45;13.65;;;7.97;;
53927;SDS011;39837;47.630;18.822;2022-11-20T14:07:40;19.73;;;9.07;;
53927;SDS011;39837;47.630;18.822;2022-11-20T14:10:26;24.60;;;10.00;;
53927;SDS011;39837;47.630;18.822;2022-11-20T14:13:18;17.88;;;9.95;;
53927;SDS011;39837;47.630;18.822;2022-11-20T14:16:03;18.58;;;10.65;;
53927;SDS011;39837;47.630;18.822;2022-11-20T14:18:47;24.77;;;11.65;;
53927;SDS011;39837;47.630;18.822;2022-11-20T14:21:31;20.75;;;10.45;;
53927;SDS011;39837;47.630;18.822;2022-11-20T14:24:18;29.25;;;14.90;;
53927;SDS011;39837;47.630;18.822;2022-11-20T14:27:04;27.70;;;13.32;;
53927;SDS011;39837;47.630;18.822;2022-11-20T14:29:49;25.88;;;13.98;;
53927;SDS011;39837;47.630;18.822;2022-11-20T14:32:34;47.78;;;25.85;;
53927;SDS011;39837;47.630;18.822;2022-11-20T14:35:34;23.52;;;12.48;;
53927;SDS011;39837;47.630;18.822;2022-11-20T14:38:25;35.13;;;16.92;;
53927;SDS011;39837;47.630;18.822;2022-11-20T14:41:29;18.75;;;11.75;;
53927;SDS011;39837;47.630;18.822;2022-11-20T14:44:16;19.25;;;9.68;;
53927;SDS011;39837;47.630;18.822;2022-11-20T14:47:00;25.90;;;11.25;;
53927;SDS011;39837;47.630;18.822;2022-11-20T14:49:46;19.63;;;12.02;;
53927;SDS011;39837;47.630;18.822;2022-11-20T14:52:30;12.27;;;9.20;;
53927;SDS011;39837;47.630;18.822;2022-11-20T14:55:14;25.50;;;11.77;;
53927;SDS011;39837;47.630;18.822;2022-11-20T14:58:20;16.17;;;11.02;;
53927;SDS011;39837;47.630;18.822;2022-11-20T15:01:06;15.13;;;9.30;;
53927;SDS011;39837;47.630;18.822;2022-11-20T15:04:06;22.20;;;11.23;;
53927;SDS011;39837;47.630;18.822;2022-11-20T15:06:51;17.15;;;9.27;;
53927;SDS011;39837;47.630;18.822;2022-11-20T15:09:36;17.35;;;11.27;;
53927;SDS011;39837;47.630;18.822;2022-11-20T15:12:20;41.10;;;12.73;;
53927;SDS011;39837;47.630;18.822;2022-11-20T15:15:04;25.23;;;12.35;;
53927;SDS011;39837;47.630;18.822;2022-11-20T15:17:49;17.48;;;10.75;;
53927;SDS011;39837;47.630;18.822;2022-11-20T15:20:34;20.38;;;11.52;;
53927;SDS011;39837;47.630;18.822;2022-11-20T15:23:20;24.67;;;13.32;;
53927;SDS011;39837;47.630;18.822;2022-11-20T15:26:05;17.75;;;10.88;;
53927;SDS011;39837;47.630;18.822;2022-11-20T15:28:50;29.48;;;10.15;;
53927;SDS011;39837;47.630;18.822;2022-11-20T15:31:34;25.75;;;11.88;;
53927;SDS011;39837;47.630;18.822;2022-11-20T15:34:18;21.77;;;10.00;;
53927;SDS011;39837;47.630;18.822;2022-11-20T15:37:02;16.40;;;11.10;;
53927;SDS011;39837;47.630;18.822;2022-11-20T15:39:46;22.85;;;11.43;;
53927;SDS011;39837;47.630;18.822;2022-11-20T15:42:30;18.88;;;10.30;;
53927;SDS011;39837;47.630;18.822;2022-11-20T15:45:14;22.00;;;12.85;;
53927;SDS011;39837;47.630;18.822;2022-11-20T15:47:58;32.70;;;14.32;;
53927;SDS011;39837;47.630;18.822;2022-11-20T15:50:46;27.02;;;13.85;;
53927;SDS011;39837;47.630;18.822;2022-11-20T15:53:39;22.00;;;12.50;;
53927;SDS011;39837;47.630;18.822;2022-11-20T15:56:24;24.83;;;12.43;;
53927;SDS011;39837;47.630;18.822;2022-11-20T15:59:08;24.00;;;13.48;;
53927;SDS011;39837;47.630;18.822;2022-11-20T16:01:52;27.38;;;13.88;;
53927;SDS011;39837;47.630;18.822;2022-11-20T16:04:36;27.63;;;13.40;;
53927;SDS011;39837;47.630;18.822;2022-11-20T16:07:20;28.15;;;13.43;;
53927;SDS011;39837;47.630;18.822;2022-11-20T16:10:04;27.52;;;14.35;;
53927;SDS011;39837;47.630;18.822;2022-11-20T16:12:49;24.13;;;13.10;;
53927;SDS011;39837;47.630;18.822;2022-11-20T16:15:53;24.50;;;12.90;;
53927;SDS011;39837;47.630;18.822;2022-11-20T16:18:40;23.55;;;12.27;;
53927;SDS011;39837;47.630;18.822;2022-11-20T16:21:24;19.08;;;11.32;;
53927;SDS011;39837;47.630;18.822;2022-11-20T16:24:15;22.85;;;12.52;;
53927;SDS011;39837;47.630;18.822;2022-11-20T16:26:59;24.70;;;11.95;;
53927;SDS011;39837;47.630;18.822;2022-11-20T16:29:43;19.55;;;10.65;;
53927;SDS011;39837;47.630;18.822;2022-11-20T16:32:27;18.55;;;9.85;;
53927;SDS011;39837;47.630;18.822;2022-11-20T16:35:11;22.50;;;10.73;;
53927;SDS011;39837;47.630;18.822;2022-11-20T16:37:55;24.55;;;11.60;;
53927;SDS011;39837;47.630;18.822;2022-11-20T16:40:40;22.48;;;12.48;;
53927;SDS011;39837;47.630;18.822;2022-11-20T16:43:24;23.50;;;13.07;;
53927;SDS011;39837;47.630;18.822;2022-11-20T16:46:08;22.67;;;11.65;;
53927;SDS011;39837;47.630;18.822;2022-11-20T16:49:13;21.58;;;13.35;;
53927;SDS011;39837;47.630;18.822;2022-11-20T16:51:56;19.30;;;12.02;;
53927;SDS011;39837;47.630;18.822;2022-11-20T16:54:40;25.20;;;11.02;;
53927;SDS011;39837;47.630;18.822;2022-11-20T16:57:27;25.05;;;12.73;;
53927;SDS011;39837;47.630;18.822;2022-11-20T17:00:11;28.83;;;10.45;;
53927;SDS011;39837;47.630;18.822;2022-11-20T17:02:55;22.33;;;11.55;;
53927;SDS011;39837;47.630;18.822;2022-11-20T17:05:39;23.50;;;10.70;;
53927;SDS011;39837;47.630;18.822;2022-11-20T17:08:23;20.80;;;10.15;;
53927;SDS011;39837;47.630;18.822;2022-11-20T17:11:07;17.40;;;10.90;;
53927;SDS011;39837;47.630;18.822;2022-11-20T17:13:53;21.10;;;10.55;;
53927;SDS011;39837;47.630;18.822;2022-11-20T17:16:38;24.95;;;11.50;;
53927;SDS011;39837;47.630;18.822;2022-11-20T17:19:22;20.27;;;12.23;;
53927;SDS011;39837;47.630;18.822;2022-11-20T17:22:06;20.48;;;9.80;;
53927;SDS011;39837;47.630;18.822;2022-11-20T17:24:50;24.55;;;10.70;;
53927;SDS011;39837;47.630;18.822;2022-11-20T17:27:34;18.45;;;9.05;;
53927;SDS011;39837;47.630;18.822;2022-11-20T17:30:18;17.58;;;9.80;;
53927;SDS011;39837;47.630;18.822;2022-11-20T17:33:02;12.77;;;8.63;;
53927;SDS011;39837;47.630;18.822;2022-11-20T17:35:46;15.52;;;8.85;;
53927;SDS011;39837;47.630;18.822;2022-11-20T17:38:30;21.13;;;11.90;;
53927;SDS011;39837;47.630;18.822;2022-11-20T17:41:14;17.15;;;8.95;;
53927;SDS011;39837;47.630;18.822;2022-11-20T17:44:00;18.70;;;9.07;;
53927;SDS011;39837;47.630;18.822;2022-11-20T17:46:44;11.77;;;7.80;;